Share

Wauneta, NE

Imperial Municipal (KIML) Elev 3274 ft | 40.51 °N, 101.62 °W | Change Station

Current weather conditions updated 34 minutes ago

Clear
Clear
68 °F
Feels Like 68 °F
N
16
Wind Variable Wind from NE
Sunrise 6:01 AM
Sunset 7:28 PM
Moon Waning Gibbous

Today is forecast to be Much Cooler than yesterday.

Pressure 29.96 in
Visibility 10.0 miles
Clouds Clear
Dew Point 40 °F
Humidity 36%
Rainfall 0.00 in
Snow Depth Not available.
UV 8 out of 16
Pollen 10.80 out of 12
Air Quality Not available.
Flu Activity Sporadic
METAR KIML 192053Z AUTO 05014KT 10SM CLR 20/04 A3000 RMK AO2 SLP143 T02000044 58006 $

More Conditions Fewer Conditions

Pressure 29.96 in
Visibility 10.0 miles
Clouds Clear
Dew Point 40 °F
Humidity 36%
Rainfall 0.00 in
Snow Depth Not available.
UV 8 out of 16
Pollen 10.80 out of 12
Air Quality Not available.
Flu Activity Sporadic
METAR KIML 192053Z AUTO 05014KT 10SM CLR 20/04 A3000 RMK AO2 SLP143 T02000044 58006 $

More Conditions Fewer Conditions

10-Day Weather Forecast

Almanac

Astronomy

Apr. 19, 2014 Rise Set
Actual Time 6:01 AM MDT 7:28 PM MDT
Civil Twilight 5:32 AM MDT 7:57 PM MDT
Nautical Twilight 4:58 AM MDT 8:31 PM MDT
Astronomical Twilight 4:22 AM MDT 9:08 PM MDT
Moon No Moon Rise 9:21 AM MDT
Length of Visible Light 14h 24m
Length of Day
13h 27m
Tomorrow will be 2m 29s longer.
Waning Gibbous, 76% of the Moon is Illuminated
Today
Waning Gibbous
Apr 22
Last Quarter
Apr 29
New
May 6
First Quarter
May 14
Full

Today's Extremes

State Highs State Lows

Community

  • Skirting the Horizon
    Skirting the Horizon
  • Piriapolis
    Piriapolis
  • A Glorious Morning
    A Glorious Morning
  • Tender Rays Of Hope
    Tender Rays Of Hope
  • Bleeding Hearts
    Bleeding Hearts

WunderPhotos

Upload Photos

1,702,911 photos uploaded!

WunderBlogs® & News

Nearby

Snow Depth

Station Depth Elevation
No new snow has been reported.

Coastal Water Temperatures

Place Temperature
No Stations Reporting

Earthquake Activity

City Distance Mag. Time & Date
No recent earthquake activity has been reported nearby.
Minimum magnitude displayed is 2.5.

Nearby Weather Stations

Station Location Temp. Heat Index Dew Point Humidity Wind Precip. Elev Updated Type
Palisade, Palisade, NE 72.5 °F 77 °F 49 °F 44% NNW  at  10.4 mph 0.00 in / hr 2768 ft 4:27 PM CDT Rapid Fire
HAYES CENTER, HAYES CENTER, NE 70.9 °F 77 °F 48 °F 45% NNE  at  10.0 mph 0.00 in / hr 3035 ft 4:24 PM CDT Normal
MesoWest JOHNSON FARM , Champion, NE 66 °F - 41 °F 40% NE  at  14 mph 0.00 in / hr 3340 ft 2:00 PM MDT MADIS

Show More Stations Show Fewer Stations

What do you think?

We're not finished. Please let us know what you like, what you don't like, and what you are still missing.